Time;durP1;ratioP1;P1;durP2;ratioP2;P2;SDS_P1;SDS_P2;PMS_P1;PMS_P2;Temp;Humidity;BMP_temperature;BMP_pressure;BME280_temperature;BME280_humidity;BME280_pressure;Samples;Min_cycle;Max_cycle;Signal;HPM_P1;HPM_P2
2021/01/22 00:00:22;;;;;;;22.15;13.82;;;1.30;99.90;;;;;;5006539;28;20121;-74
2021/01/22 00:02:48;;;;;;;26.20;13.52;;;1.30;99.90;;;;;;5014083;28;20021;-73
2021/01/22 00:05:14;;;;;;;150.43;25.30;;;1.30;99.90;;;;;;5014216;28;20033;-73
2021/01/22 00:07:39;;;;;;;102.18;18.73;;;1.20;99.90;;;;;;5013660;28;20022;-72
2021/01/22 00:10:06;;;;;;;19.58;11.57;;;1.20;99.90;;;;;;5014444;28;20057;-74
2021/01/22 00:12:31;;;;;;;15.82;10.45;;;1.30;99.90;;;;;;5013370;28;20156;-73
2021/01/22 00:14:57;;;;;;;14.27;9.77;;;1.30;99.90;;;;;;5014334;28;20648;-72
2021/01/22 00:17:23;;;;;;;15.48;10.57;;;1.30;99.90;;;;;;5011387;28;20037;-73
2021/01/22 00:19:49;;;;;;;15.85;10.85;;;1.40;99.90;;;;;;5013964;28;20038;-72
2021/01/22 00:22:14;;;;;;;18.55;10.65;;;1.40;99.90;;;;;;5013891;28;20030;-73
2021/01/22 00:24:40;;;;;;;14.73;9.63;;;1.40;99.90;;;;;;5013084;28;20033;-72
2021/01/22 00:27:06;;;;;;;17.15;11.48;;;1.40;99.90;;;;;;5013469;28;20040;-73
2021/01/22 00:29:31;;;;;;;15.05;10.27;;;1.50;99.90;;;;;;5013298;28;20021;-73
2021/01/22 00:31:57;;;;;;;15.73;10.85;;;1.50;99.90;;;;;;5013690;28;20042;-73
2021/01/22 00:34:23;;;;;;;18.17;11.77;;;1.50;99.90;;;;;;5013348;28;20112;-73
2021/01/22 00:36:49;;;;;;;17.73;10.60;;;1.50;99.90;;;;;;5012521;28;20033;-74
2021/01/22 00:39:15;;;;;;;16.25;10.25;;;1.40;99.90;;;;;;5012598;28;20030;-73
2021/01/22 00:41:41;;;;;;;16.15;10.65;;;1.40;99.90;;;;;;5012646;28;20101;-73
2021/01/22 00:44:06;;;;;;;14.02;9.63;;;1.50;99.90;;;;;;5012903;28;20105;-73
2021/01/22 00:46:32;;;;;;;54.90;15.40;;;1.50;99.90;;;;;;5013758;28;20081;-76
2021/01/22 00:48:58;;;;;;;15.20;10.45;;;1.40;99.90;;;;;;5013831;28;20080;-73
2021/01/22 00:51:23;;;;;;;14.23;8.70;;;1.40;99.90;;;;;;5013665;28;20030;-73
2021/01/22 00:53:49;;;;;;;15.55;9.25;;;1.50;99.90;;;;;;5012860;28;20061;-73
2021/01/22 00:56:15;;;;;;;13.43;9.10;;;1.40;99.90;;;;;;5012842;28;20022;-73
2021/01/22 00:58:40;;;;;;;43.10;14.73;;;1.50;99.90;;;;;;5012220;28;20060;-73
2021/01/22 01:01:06;;;;;;;15.48;10.10;;;1.30;99.90;;;;;;5013046;28;20098;-77
2021/01/22 01:03:32;;;;;;;14.93;10.73;;;1.30;99.90;;;;;;5013679;28;20080;-72
2021/01/22 01:05:57;;;;;;;16.13;9.98;;;1.40;99.90;;;;;;5010523;28;20036;-73
2021/01/22 01:08:23;;;;;;;15.00;9.02;;;1.40;99.90;;;;;;5012732;28;20400;-72
2021/01/22 01:10:48;;;;;;;12.85;8.85;;;1.40;99.90;;;;;;5012504;28;20072;-72
2021/01/22 01:13:14;;;;;;;13.73;9.07;;;1.50;99.90;;;;;;5012187;28;20038;-73
2021/01/22 01:15:40;;;;;;;13.32;8.60;;;1.50;99.90;;;;;;5011649;28;20034;-73
2021/01/22 01:18:06;;;;;;;66.32;14.88;;;1.40;99.90;;;;;;5012135;28;20026;-75
2021/01/22 01:20:31;;;;;;;83.65;19.00;;;1.30;99.90;;;;;;5012934;28;20076;-73
2021/01/22 01:22:58;;;;;;;15.90;9.02;;;1.30;99.90;;;;;;5012799;28;20036;-72
2021/01/22 01:25:24;;;;;;;12.48;8.55;;;1.30;99.90;;;;;;5012772;28;20441;-72
2021/01/22 01:27:50;;;;;;;11.40;7.25;;;1.30;99.90;;;;;;5010592;28;20087;-73
2021/01/22 01:30:16;;;;;;;11.23;7.45;;;1.30;99.90;;;;;;5011734;28;20095;-72
2021/01/22 01:32:41;;;;;;;10.07;7.18;;;1.50;99.90;;;;;;5012400;28;20392;-73
2021/01/22 01:35:08;;;;;;;10.65;6.55;;;1.50;99.90;;;;;;5012746;28;20022;-72
2021/01/22 01:37:33;;;;;;;8.77;5.85;;;1.50;99.90;;;;;;5011108;28;20026;-72
2021/01/22 01:39:59;;;;;;;8.65;5.63;;;1.50;99.90;;;;;;5011861;28;20419;-72
2021/01/22 01:42:25;;;;;;;7.93;5.47;;;1.60;99.90;;;;;;5012155;28;20384;-73
2021/01/22 01:44:51;;;;;;;6.95;5.10;;;1.60;99.90;;;;;;5012058;28;20026;-72
2021/01/22 01:47:17;;;;;;;7.85;5.57;;;1.70;99.90;;;;;;5012218;28;20022;-73
2021/01/22 01:49:43;;;;;;;11.90;6.70;;;1.70;99.90;;;;;;5011559;28;20105;-73
2021/01/22 01:52:09;;;;;;;86.40;14.88;;;1.60;99.90;;;;;;5012306;28;20025;-73
2021/01/22 01:54:35;;;;;;;41.67;10.07;;;1.60;99.90;;;;;;5012366;28;20542;-72
2021/01/22 01:57:02;;;;;;;8.10;5.55;;;1.40;99.90;;;;;;5012476;28;20025;-72
2021/01/22 01:59:28;;;;;;;8.20;4.88;;;1.40;99.90;;;;;;5011615;28;20562;-73
2021/01/22 02:01:55;;;;;;;10.88;4.88;;;1.40;99.90;;;;;;5012128;28;20030;-72
2021/01/22 02:04:21;;;;;;;7.05;4.53;;;1.50;99.90;;;;;;5011598;28;20503;-73
2021/01/22 02:06:46;;;;;;;8.40;5.13;;;1.50;99.90;;;;;;5012265;28;20026;-74
2021/01/22 02:09:12;;;;;;;10.95;4.28;;;1.60;99.90;;;;;;5010420;28;20037;-73
2021/01/22 02:11:38;;;;;;;6.40;4.13;;;1.50;99.90;;;;;;5011648;28;20038;-72
2021/01/22 02:14:04;;;;;;;7.55;4.65;;;1.50;99.90;;;;;;5011852;28;20029;-74
2021/01/22 02:16:32;;;;;;;120.50;20.40;;;1.60;99.90;;;;;;5003461;28;20022;-73
2021/01/22 02:18:59;;;;;;;52.22;10.05;;;1.60;99.90;;;;;;5002406;28;20520;-73
2021/01/22 02:21:31;;;;;;;52.45;10.25;;;1.40;99.90;;;;;;5012026;28;20029;-73
2021/01/22 02:24:06;;;;;;;7.25;5.35;;;1.30;99.90;;;;;;5011716;28;20116;-73
2021/01/22 02:26:32;;;;;;;13.75;6.53;;;1.40;99.90;;;;;;5011617;28;20500;-72
2021/01/22 02:29:04;;;;;;;10.93;4.75;;;1.40;99.90;;;;;;5010127;28;20029;-73
2021/01/22 02:31:32;;;;;;;6.40;4.10;;;1.40;99.90;;;;;;5011443;28;20077;-73
2021/01/22 02:34:04;;;;;;;6.22;3.97;;;1.40;99.90;;;;;;5011162;28;20018;-73
2021/01/22 02:36:32;;;;;;;6.72;3.95;;;1.50;99.90;;;;;;5010746;28;20026;-73
2021/01/22 02:39:01;;;;;;;9.02;4.72;;;1.70;99.90;;;;;;5010874;28;20036;-73
2021/01/22 02:41:28;;;;;;;10.45;5.80;;;1.60;99.90;;;;;;5010307;28;20135;-75
2021/01/22 02:43:55;;;;;;;89.53;14.07;;;1.50;99.90;;;;;;5011444;28;20044;-73
2021/01/22 02:46:22;;;;;;;10.57;5.68;;;1.40;99.90;;;;;;5010855;28;20484;-73
2021/01/22 02:48:48;;;;;;;104.80;14.25;;;1.40;99.90;;;;;;5010942;28;20040;-73
2021/01/22 02:51:17;;;;;;;37.92;8.10;;;1.40;99.90;;;;;;5011163;28;20034;-73
2021/01/22 02:53:43;;;;;;;81.65;14.43;;;1.40;99.90;;;;;;5011225;28;20060;-73
2021/01/22 02:56:20;;;;;;;7.93;5.30;;;1.30;99.90;;;;;;5010848;28;20065;-73
2021/01/22 02:58:52;;;;;;;8.57;5.10;;;1.30;99.90;;;;;;5010945;28;20040;-73
2021/01/22 03:01:24;;;;;;;8.27;5.43;;;1.40;99.90;;;;;;5010571;28;20042;-73
2021/01/22 03:04:11;;;;;;;6.95;4.70;;;1.40;99.90;;;;;;5010016;28;20092;-73
2021/01/22 03:06:44;;;;;;;7.60;4.82;;;1.50;99.90;;;;;;5011339;28;20022;-73
2021/01/22 03:09:18;;;;;;;7.18;4.70;;;1.50;99.90;;;;;;5010685;28;20057;-73
2021/01/22 03:11:47;;;;;;;7.50;4.82;;;1.50;99.90;;;;;;5010892;28;20489;-73
2021/01/22 03:14:14;;;;;;;8.10;5.07;;;1.50;99.90;;;;;;5011014;28;20500;-73
2021/01/22 03:16:40;;;;;;;23.75;7.63;;;1.40;99.90;;;;;;5001254;28;20070;-73
2021/01/22 03:19:05;;;;;;;7.75;4.65;;;1.40;99.90;;;;;;5008870;28;20037;-73
2021/01/22 03:21:32;;;;;;;7.40;5.00;;;1.40;99.90;;;;;;5012809;28;20109;-73
2021/01/22 03:23:58;;;;;;;7.15;5.07;;;1.50;99.90;;;;;;5014855;28;20029;-73
2021/01/22 03:26:25;;;;;;;7.85;4.20;;;1.60;99.90;;;;;;5014663;28;20061;-73
2021/01/22 03:28:50;;;;;;;7.75;5.13;;;1.70;99.90;;;;;;5014757;28;20029;-73
2021/01/22 03:31:16;;;;;;;142.50;24.25;;;1.70;99.90;;;;;;5014392;28;20045;-73
2021/01/22 03:33:44;;;;;;;7.75;4.80;;;1.40;99.90;;;;;;5014376;28;20033;-73
2021/01/22 03:36:09;;;;;;;99.03;18.58;;;1.40;99.90;;;;;;5014208;28;20040;-73
2021/01/22 03:38:35;;;;;;;108.25;15.43;;;1.40;99.90;;;;;;5014589;28;20037;-73
2021/01/22 03:41:01;;;;;;;13.80;5.85;;;1.40;99.90;;;;;;5014959;28;20056;-73
2021/01/22 03:43:27;;;;;;;7.47;4.47;;;1.40;99.90;;;;;;5013958;28;20030;-73
2021/01/22 03:45:53;;;;;;;6.43;4.45;;;1.50;99.90;;;;;;5014190;28;20026;-73
2021/01/22 03:48:20;;;;;;;7.10;4.63;;;1.60;99.90;;;;;;5014476;28;20022;-72
2021/01/22 03:50:45;;;;;;;7.93;4.15;;;1.70;99.90;;;;;;5014191;28;20026;-73
2021/01/22 03:53:11;;;;;;;6.82;4.00;;;1.70;99.90;;;;;;5014201;28;20048;-73
2021/01/22 03:55:37;;;;;;;5.43;3.65;;;1.70;99.90;;;;;;5014517;28;20034;-72
2021/01/22 03:58:03;;;;;;;5.07;3.63;;;1.80;99.90;;;;;;5014581;28;20032;-74
2021/01/22 04:00:30;;;;;;;7.10;4.32;;;1.80;99.90;;;;;;5013014;28;20428;-72
2021/01/22 04:02:59;;;;;;;6.32;4.15;;;1.80;99.90;;;;;;5005860;28;20481;-74
2021/01/22 04:05:25;;;;;;;6.95;4.60;;;1.80;99.90;;;;;;5000959;28;20017;-74
2021/01/22 04:07:51;;;;;;;7.35;4.18;;;1.70;99.90;;;;;;5007037;28;20063;-74
2021/01/22 04:10:17;;;;;;;7.53;4.43;;;1.70;99.90;;;;;;5006872;28;20485;-74
2021/01/22 04:12:43;;;;;;;7.32;4.75;;;1.70;99.90;;;;;;5005798;28;20547;-75
2021/01/22 04:15:09;;;;;;;8.23;5.35;;;1.70;99.90;;;;;;5006154;28;20045;-74
2021/01/22 04:17:35;;;;;;;184.27;25.33;;;1.70;99.90;;;;;;5005158;28;20028;-74
2021/01/22 04:20:01;;;;;;;26.90;8.05;;;1.60;99.90;;;;;;5005347;28;20502;-74
2021/01/22 04:22:27;;;;;;;19.98;6.88;;;1.50;99.90;;;;;;5006157;28;20032;-74
2021/01/22 04:24:52;;;;;;;471.05;62.60;;;1.50;99.90;;;;;;5005627;28;20037;-73
2021/01/22 04:27:18;;;;;;;219.77;29.10;;;1.40;99.90;;;;;;5006306;28;20512;-74
2021/01/22 04:29:44;;;;;;;238.63;32.42;;;1.30;99.90;;;;;;5005664;28;20121;-74
2021/01/22 04:32:10;;;;;;;243.55;32.95;;;1.30;99.90;;;;;;5005709;28;20026;-74
2021/01/22 04:34:35;;;;;;;235.85;29.10;;;1.30;99.90;;;;;;5005621;28;20449;-73
2021/01/22 04:37:05;;;;;;;260.25;33.17;;;1.30;99.90;;;;;;5005940;28;20030;-74
2021/01/22 04:39:32;;;;;;;71.00;13.02;;;1.20;99.90;;;;;;5006136;28;20036;-73
2021/01/22 04:41:58;;;;;;;14.45;6.97;;;1.30;99.90;;;;;;5006799;28;20671;-74
2021/01/22 04:44:24;;;;;;;13.77;7.25;;;1.30;99.90;;;;;;4995846;28;20121;-73
2021/01/22 04:46:51;;;;;;;8.68;6.10;;;1.30;99.90;;;;;;4987950;28;20429;-73
2021/01/22 04:49:20;;;;;;;19.58;7.90;;;1.40;99.90;;;;;;5006030;28;20036;-73
2021/01/22 04:51:46;;;;;;;12.77;5.57;;;1.40;99.90;;;;;;5006025;28;20028;-73
2021/01/22 04:54:26;;;;;;;41.00;8.75;;;1.40;99.90;;;;;;5005448;28;20026;-74
2021/01/22 04:56:54;;;;;;;7.72;5.30;;;1.30;99.90;;;;;;5005319;28;20025;-73
2021/01/22 04:59:30;;;;;;;19.63;7.53;;;1.40;99.90;;;;;;4986500;28;20027;-74
2021/01/22 05:01:56;;;;;;;11.95;6.72;;;1.40;99.90;;;;;;4986907;28;20030;-74
2021/01/22 05:04:23;;;;;;;11.70;6.25;;;1.40;99.90;;;;;;5005484;28;20022;-75
2021/01/22 05:06:50;;;;;;;8.05;5.53;;;1.40;99.90;;;;;;5005350;28;20523;-74
2021/01/22 05:09:17;;;;;;;9.27;5.65;;;1.50;99.90;;;;;;5005210;28;20163;-73
2021/01/22 05:11:42;;;;;;;9.63;5.70;;;1.50;99.90;;;;;;5005667;28;20032;-73
2021/01/22 05:14:09;;;;;;;10.48;5.97;;;1.60;99.90;;;;;;5005243;28;20521;-75
2021/01/22 05:16:34;;;;;;;7.55;5.10;;;1.60;99.90;;;;;;5005253;28;20773;-73
2021/01/22 05:19:19;;;;;;;166.60;22.70;;;1.50;99.90;;;;;;5005462;28;20112;-73
2021/01/22 05:21:45;;;;;;;275.85;33.85;;;1.30;99.90;;;;;;5006182;28;20625;-73
2021/01/22 05:24:25;;;;;;;95.10;16.25;;;1.30;99.90;;;;;;5004466;28;20037;-74
2021/01/22 05:27:03;;;;;;;437.52;60.47;;;1.30;99.90;;;;;;5004304;28;20065;-74
2021/01/22 05:29:29;;;;;;;209.13;27.30;;;1.20;99.90;;;;;;5004989;28;20029;-73
2021/01/22 05:31:55;;;;;;;280.45;37.70;;;1.20;99.90;;;;;;5005209;28;20022;-73
2021/01/22 05:34:21;;;;;;;113.32;19.35;;;1.20;99.90;;;;;;5004614;28;20025;-74
2021/01/22 05:36:50;;;;;;;120.18;19.10;;;1.20;99.90;;;;;;5004927;28;20026;-76
2021/01/22 05:39:21;;;;;;;13.40;8.55;;;1.30;99.90;;;;;;5004191;28;20068;-74
2021/01/22 05:41:54;;;;;;;19.25;11.68;;;1.30;99.90;;;;;;5005224;28;20037;-74
2021/01/22 05:44:24;;;;;;;15.13;9.07;;;1.40;99.90;;;;;;5001102;28;20342;-74
2021/01/22 05:47:10;;;;;;;24.17;10.10;;;1.40;99.90;;;;;;4995670;28;20026;-78
2021/01/22 05:49:58;;;;;;;13.27;6.45;;;1.30;99.90;;;;;;5004560;28;20495;-74
2021/01/22 05:52:25;;;;;;;9.18;6.20;;;1.30;99.90;;;;;;5004812;28;20022;-74
2021/01/22 05:54:51;;;;;;;9.25;6.00;;;1.40;99.90;;;;;;5010018;28;20511;-74
2021/01/22 05:57:18;;;;;;;10.02;6.45;;;1.80;99.90;;;;;;5004984;28;20453;-74
2021/01/22 05:59:44;;;;;;;10.38;6.85;;;1.80;99.90;;;;;;5003506;28;20034;-73
2021/01/22 06:02:29;;;;;;;12.52;8.02;;;1.70;99.90;;;;;;5002312;28;20530;-75
2021/01/22 06:05:14;;;;;;;16.38;9.98;;;1.70;99.90;;;;;;5002333;28;20030;-74
2021/01/22 06:07:45;;;;;;;19.88;11.07;;;1.70;99.90;;;;;;4999957;28;20021;-74
2021/01/22 06:10:24;;;;;;;24.98;11.35;;;1.60;99.90;;;;;;5003912;28;20022;-74
2021/01/22 06:12:52;;;;;;;227.88;32.20;;;1.70;99.90;;;;;;5003280;28;20555;-73
2021/01/22 06:15:20;;;;;;;196.88;33.28;;;1.50;99.90;;;;;;5010757;28;20174;-74
2021/01/22 06:17:48;;;;;;;95.82;17.85;;;1.50;99.90;;;;;;4997102;28;20059;-73
2021/01/22 06:20:19;;;;;;;18.05;10.32;;;1.40;99.90;;;;;;5004682;28;20033;-73
2021/01/22 06:23:11;;;;;;;15.00;9.52;;;1.40;99.90;;;;;;5003925;28;20496;-73
2021/01/22 06:25:38;;;;;;;11.73;7.78;;;1.50;99.90;;;;;;5003258;28;20029;-73
2021/01/22 06:28:08;;;;;;;13.48;9.18;;;1.60;99.90;;;;;;5003888;28;20018;-73
2021/01/22 06:30:35;;;;;;;10.73;7.18;;;1.70;99.90;;;;;;5003144;28;20480;-73
2021/01/22 06:33:05;;;;;;;12.02;7.55;;;1.80;99.90;;;;;;5002533;28;20034;-73
2021/01/22 06:35:33;;;;;;;12.02;7.15;;;1.80;99.90;;;;;;5003005;28;20029;-73
2021/01/22 06:37:59;;;;;;;11.55;6.82;;;1.80;99.90;;;;;;5002803;28;20034;-73
2021/01/22 06:40:26;;;;;;;95.15;21.55;;;1.90;99.90;;;;;;5001565;28;20042;-73
2021/01/22 06:42:53;;;;;;;221.90;35.90;;;1.60;99.90;;;;;;5003066;28;20030;-73
2021/01/22 06:45:23;;;;;;;76.93;19.92;;;1.50;99.90;;;;;;5002610;28;20661;-73
2021/01/22 06:48:06;;;;;;;42.80;15.10;;;1.50;99.90;;;;;;4992968;28;20030;-73
2021/01/22 06:50:33;;;;;;;19.67;12.52;;;1.50;99.90;;;;;;5003392;28;20069;-73
2021/01/22 06:53:13;;;;;;;117.18;23.38;;;1.50;99.90;;;;;;5002541;28;20042;-73
2021/01/22 06:55:53;;;;;;;28.73;11.90;;;1.50;99.90;;;;;;5002543;28;20488;-73
2021/01/22 06:58:26;;;;;;;26.67;11.43;;;1.50;99.90;;;;;;5002664;28;20030;-73
2021/01/22 07:00:59;;;;;;;149.98;25.17;;;1.50;99.90;;;;;;5003631;28;20073;-74
2021/01/22 07:03:37;;;;;;;65.60;18.30;;;1.50;99.90;;;;;;5002893;28;20380;-74
2021/01/22 07:06:08;;;;;;;30.42;15.35;;;1.50;99.90;;;;;;5001984;28;20113;-74
2021/01/22 07:08:56;;;;;;;20.90;11.48;;;1.50;99.90;;;;;;5002704;28;20480;-74
2021/01/22 07:11:23;;;;;;;24.77;12.20;;;1.50;99.90;;;;;;5003438;28;20022;-74
2021/01/22 07:13:50;;;;;;;19.63;10.38;;;1.60;99.90;;;;;;5002570;28;20019;-75
2021/01/22 07:16:18;;;;;;;13.10;7.95;;;1.60;99.90;;;;;;5001958;28;20030;-76
2021/01/22 07:18:50;;;;;;;15.05;9.07;;;1.70;99.90;;;;;;5002287;28;20026;-75
2021/01/22 07:21:39;;;;;;;11.25;7.72;;;1.80;99.90;;;;;;4992222;28;20061;-75
2021/01/22 07:24:12;;;;;;;15.57;10.05;;;1.90;99.90;;;;;;5003049;28;20030;-75
2021/01/22 07:26:42;;;;;;;17.33;11.25;;;1.80;99.90;;;;;;5002503;28;20701;-75
2021/01/22 07:29:16;;;;;;;16.25;10.27;;;1.70;99.90;;;;;;5001938;28;20041;-74
2021/01/22 07:31:55;;;;;;;13.18;8.40;;;1.70;99.90;;;;;;4987790;28;20672;-75
2021/01/22 07:34:49;;;;;;;11.82;7.38;;;1.70;99.90;;;;;;5002748;28;20109;-75
2021/01/22 07:37:19;;;;;;;85.15;20.92;;;1.80;99.90;;;;;;5000253;28;20018;-75
2021/01/22 07:39:45;;;;;;;23.45;12.68;;;1.50;99.90;;;;;;5002528;28;20045;-75
2021/01/22 07:42:13;;;;;;;25.70;13.00;;;1.50;99.90;;;;;;5001922;28;20090;-75
2021/01/22 07:44:40;;;;;;;117.80;23.27;;;1.50;99.90;;;;;;5002967;28;20030;-74
2021/01/22 07:47:08;;;;;;;144.80;24.50;;;1.50;99.90;;;;;;5002500;28;20516;-74
2021/01/22 07:49:34;;;;;;;18.65;11.50;;;1.40;99.90;;;;;;5003018;28;20092;-75
2021/01/22 07:52:03;;;;;;;15.65;10.13;;;1.50;99.90;;;;;;5001785;28;20030;-75
2021/01/22 07:54:42;;;;;;;15.95;9.55;;;1.50;99.90;;;;;;5002013;28;20544;-75
2021/01/22 07:57:16;;;;;;;13.15;8.35;;;1.60;99.90;;;;;;5002096;28;20136;-75
2021/01/22 07:59:43;;;;;;;11.20;7.43;;;1.80;99.90;;;;;;5002036;28;20045;-74
2021/01/22 08:02:22;;;;;;;23.15;10.73;;;1.80;99.90;;;;;;4992045;28;20049;-75
2021/01/22 08:04:59;;;;;;;17.17;11.52;;;1.60;99.90;;;;;;5001587;28;20037;-75
2021/01/22 08:07:38;;;;;;;15.18;10.80;;;1.60;99.90;;;;;;5004543;28;20022;-75
2021/01/22 08:10:12;;;;;;;17.80;9.98;;;1.60;99.90;;;;;;5005497;28;20022;-75
2021/01/22 08:12:53;;;;;;;13.77;9.68;;;1.70;99.90;;;;;;5005752;28;20567;-75
2021/01/22 08:15:19;;;;;;;17.60;11.30;;;1.80;99.90;;;;;;5005361;28;20497;-75
2021/01/22 08:17:49;;;;;;;15.65;9.75;;;1.80;99.90;;;;;;5006174;28;20536;-74
2021/01/22 08:20:17;;;;;;;189.35;32.47;;;1.80;99.90;;;;;;5005102;28;20034;-75
2021/01/22 08:22:43;;;;;;;79.88;19.80;;;1.70;99.90;;;;;;5005689;28;20037;-75
2021/01/22 08:25:10;;;;;;;20.25;12.73;;;1.70;99.90;;;;;;5005971;28;20026;-75
2021/01/22 08:27:36;;;;;;;22.50;14.13;;;1.70;99.90;;;;;;5005739;28;20087;-74
2021/01/22 08:30:03;;;;;;;23.40;13.88;;;1.80;99.90;;;;;;5005957;28;20049;-74
2021/01/22 08:32:30;;;;;;;25.65;14.07;;;1.80;99.90;;;;;;5004317;28;20429;-75
2021/01/22 08:34:57;;;;;;;21.38;13.43;;;1.80;99.90;;;;;;5006148;28;20030;-75
2021/01/22 08:37:23;;;;;;;24.83;15.07;;;1.90;99.90;;;;;;5006278;28;20030;-75
2021/01/22 08:39:58;;;;;;;27.23;14.57;;;2.00;99.90;;;;;;5005006;28;20440;-75
2021/01/22 08:42:28;;;;;;;28.55;14.32;;;1.90;99.90;;;;;;5006029;28;20034;-75
2021/01/22 08:44:57;;;;;;;23.85;14.38;;;1.90;99.90;;;;;;5002002;28;20358;-75
2021/01/22 08:47:23;;;;;;;106.65;28.85;;;1.90;99.90;;;;;;5004893;28;20239;-75
2021/01/22 08:50:00;;;;;;;66.97;21.40;;;1.90;99.90;;;;;;5005394;28;20022;-75
2021/01/22 08:52:27;;;;;;;28.63;16.90;;;1.80;99.90;;;;;;5003940;28;20149;-75
2021/01/22 08:54:55;;;;;;;25.52;15.48;;;1.80;99.90;;;;;;5005340;28;20468;-74
2021/01/22 08:57:23;;;;;;;36.95;18.75;;;1.90;99.90;;;;;;5005081;28;20049;-75
2021/01/22 08:59:53;;;;;;;22.20;14.25;;;1.90;99.90;;;;;;5006206;28;20689;-74
2021/01/22 09:02:35;;;;;;;25.73;15.65;;;1.90;99.90;;;;;;5004936;28;20481;-75
2021/01/22 09:05:09;;;;;;;22.10;14.25;;;1.90;99.90;;;;;;5004097;28;20029;-74
2021/01/22 09:07:46;;;;;;;16.92;11.68;;;2.00;99.90;;;;;;5005784;28;20038;-75
2021/01/22 09:10:24;;;;;;;18.80;11.68;;;2.10;99.90;;;;;;5003683;28;20946;-75
2021/01/22 09:12:49;;;;;;;19.77;12.32;;;2.20;99.90;;;;;;5005267;28;20101;-75
2021/01/22 09:15:16;;;;;;;18.10;12.15;;;2.30;99.90;;;;;;5005368;28;20195;-75
2021/01/22 09:17:45;;;;;;;18.98;11.43;;;2.30;99.90;;;;;;5005147;28;20025;-75
2021/01/22 09:20:27;;;;;;;20.00;12.70;;;2.40;99.90;;;;;;5004456;28;20030;-75
2021/01/22 09:23:02;;;;;;;121.05;27.33;;;2.40;99.90;;;;;;5004791;28;20156;-75
2021/01/22 09:25:28;;;;;;;36.78;18.95;;;2.10;99.90;;;;;;5003958;28;20022;-75
2021/01/22 09:27:54;;;;;;;26.40;17.20;;;2.00;99.90;;;;;;5004801;28;20113;-74
2021/01/22 09:30:23;;;;;;;26.15;15.90;;;2.10;99.90;;;;;;5004625;28;20049;-74
2021/01/22 09:32:54;;;;;;;23.60;15.00;;;2.10;99.90;;;;;;5004804;28;20520;-75
2021/01/22 09:35:21;;;;;;;23.45;13.93;;;2.10;99.90;;;;;;5005037;28;20021;-75
2021/01/22 09:37:48;;;;;;;27.25;16.42;;;2.20;99.90;;;;;;5004672;28;20061;-75
2021/01/22 09:40:14;;;;;;;28.27;17.90;;;2.10;99.90;;;;;;5003740;28;20041;-74
2021/01/22 09:42:40;;;;;;;21.33;14.90;;;2.10;99.90;;;;;;5004657;28;20033;-75
2021/01/22 09:45:08;;;;;;;18.25;12.18;;;2.10;99.90;;;;;;5004965;28;20444;-74
2021/01/22 09:47:34;;;;;;;26.98;15.85;;;2.30;99.90;;;;;;5005100;28;20044;-75
2021/01/22 09:50:02;;;;;;;22.75;15.10;;;2.30;99.90;;;;;;4998822;28;20060;-74
2021/01/22 09:52:27;;;;;;;28.90;17.83;;;2.10;99.90;;;;;;5005067;28;20061;-74
2021/01/22 09:54:55;;;;;;;27.10;17.85;;;2.20;99.90;;;;;;5004744;28;20438;-75
2021/01/22 09:57:20;;;;;;;35.83;19.65;;;2.30;99.90;;;;;;5005107;28;20030;-75
2021/01/22 09:59:46;;;;;;;29.90;19.15;;;2.50;99.90;;;;;;4999988;28;20040;-75
2021/01/22 10:02:12;;;;;;;22.55;13.70;;;2.50;99.90;;;;;;4995022;28;20391;-74
2021/01/22 10:04:38;;;;;;;23.30;13.57;;;2.60;99.90;;;;;;5002480;28;20040;-74
2021/01/22 10:07:05;;;;;;;20.75;13.93;;;2.60;99.90;;;;;;4985058;28;20040;-74
2021/01/22 10:09:32;;;;;;;22.83;15.13;;;2.70;99.90;;;;;;4998753;28;20048;-75
2021/01/22 10:11:58;;;;;;;72.75;22.05;;;2.70;99.90;;;;;;5004786;28;20065;-75
2021/01/22 10:14:24;;;;;;;33.80;19.08;;;2.40;99.90;;;;;;5002545;28;20030;-75
2021/01/22 10:16:50;;;;;;;27.48;16.65;;;2.40;99.90;;;;;;5002427;28;20199;-74
2021/01/22 10:19:15;;;;;;;51.15;18.63;;;2.40;99.90;;;;;;5004220;28;20029;-75
2021/01/22 10:21:41;;;;;;;75.30;29.73;;;2.40;99.90;;;;;;5003397;28;20164;-75
2021/01/22 10:24:07;;;;;;;32.55;20.67;;;2.50;99.90;;;;;;5004567;28;20029;-75
2021/01/22 10:26:33;;;;;;;64.57;26.83;;;2.50;99.90;;;;;;5003718;28;20034;-75
2021/01/22 10:28:58;;;;;;;224.10;42.97;;;2.70;99.90;;;;;;5004035;28;20479;-75
2021/01/22 10:31:24;;;;;;;35.90;19.80;;;2.40;99.90;;;;;;5001630;28;20919;-74
2021/01/22 10:33:50;;;;;;;40.50;23.48;;;2.50;99.90;;;;;;5003398;28;20038;-74
2021/01/22 10:36:16;;;;;;;599.67;83.35;;;2.50;99.90;;;;;;5004091;28;20030;-75
2021/01/22 10:38:43;;;;;;;134.32;33.47;;;2.40;99.90;;;;;;5002041;28;20417;-75
2021/01/22 10:41:09;;;;;;;105.13;31.20;;;2.40;99.90;;;;;;5003925;28;20048;-74
2021/01/22 10:43:35;;;;;;;121.75;41.92;;;2.30;99.90;;;;;;5003070;28;20092;-74
2021/01/22 10:46:01;;;;;;;37.58;21.85;;;2.30;99.90;;;;;;5004440;28;20026;-75
2021/01/22 10:48:27;;;;;;;50.05;22.73;;;2.40;99.90;;;;;;5003377;28;20111;-75
2021/01/22 10:50:53;;;;;;;27.55;16.80;;;2.50;99.90;;;;;;5003786;28;20037;-75
2021/01/22 10:53:19;;;;;;;38.25;20.60;;;2.70;99.90;;;;;;5004483;28;20045;-74
2021/01/22 10:55:45;;;;;;;141.40;32.80;;;2.80;99.90;;;;;;5002887;28;20101;-75
2021/01/22 10:58:11;;;;;;;58.70;25.08;;;2.70;99.90;;;;;;5003196;28;20088;-75
2021/01/22 11:00:37;;;;;;;111.32;29.67;;;2.70;99.90;;;;;;5003851;28;20789;-75
2021/01/22 11:03:04;;;;;;;214.02;38.95;;;2.70;99.90;;;;;;5000321;28;20034;-74
2021/01/22 11:05:29;;;;;;;72.50;26.35;;;2.50;99.90;;;;;;5003377;28;20061;-74
2021/01/22 11:07:55;;;;;;;70.50;27.17;;;2.50;99.90;;;;;;5003061;28;20480;-74
2021/01/22 11:10:21;;;;;;;43.95;24.60;;;2.50;99.90;;;;;;5001222;28;20033;-74
2021/01/22 11:12:48;;;;;;;36.13;20.45;;;2.50;99.90;;;;;;5002352;28;20065;-75
2021/01/22 11:15:14;;;;;;;54.28;20.83;;;2.50;99.90;;;;;;5003409;28;20363;-75
2021/01/22 11:17:40;;;;;;;193.50;38.75;;;2.50;99.90;;;;;;5003744;28;20037;-74
2021/01/22 11:20:06;;;;;;;34.92;22.13;;;2.30;99.90;;;;;;5003629;28;20421;-75
2021/01/22 11:22:33;;;;;;;39.28;23.52;;;2.40;99.90;;;;;;5003781;28;20048;-75
2021/01/22 11:24:59;;;;;;;47.85;31.48;;;2.50;99.90;;;;;;5003887;28;20049;-74
2021/01/22 11:27:25;;;;;;;51.67;36.47;;;2.50;99.90;;;;;;5004112;28;20045;-75
2021/01/22 11:29:51;;;;;;;53.88;35.15;;;2.50;99.90;;;;;;5002123;28;20176;-74
2021/01/22 11:32:18;;;;;;;47.80;28.67;;;2.60;99.90;;;;;;5003987;28;20372;-74
2021/01/22 11:34:44;;;;;;;37.85;23.10;;;2.60;99.90;;;;;;5003678;28;20053;-75
2021/01/22 11:37:09;;;;;;;39.13;25.05;;;2.60;99.90;;;;;;5003762;28;20033;-74
2021/01/22 11:39:38;;;;;;;35.25;19.98;;;2.70;99.90;;;;;;5002317;28;20038;-74
2021/01/22 11:42:08;;;;;;;29.98;18.08;;;2.70;99.90;;;;;;5005488;28;20152;-75
2021/01/22 11:44:35;;;;;;;34.58;21.45;;;2.80;99.90;;;;;;5006583;28;20057;-74
2021/01/22 11:47:00;;;;;;;28.75;19.00;;;2.80;99.90;;;;;;5006966;28;20114;-74
2021/01/22 11:49:26;;;;;;;34.78;21.15;;;2.90;99.90;;;;;;5007217;28;20132;-74
2021/01/22 11:51:52;;;;;;;46.13;24.88;;;2.90;99.90;;;;;;5006979;28;20036;-75
2021/01/22 11:54:18;;;;;;;30.52;19.42;;;2.90;99.90;;;;;;5007189;28;20022;-75
2021/01/22 11:56:46;;;;;;;36.35;21.15;;;3.00;99.90;;;;;;5006555;28;20045;-75
2021/01/22 11:59:13;;;;;;;32.30;20.05;;;3.10;99.90;;;;;;5006469;28;20178;-75
2021/01/22 12:01:38;;;;;;;35.05;21.45;;;3.00;99.90;;;;;;5005447;28;20465;-75
2021/01/22 12:04:04;;;;;;;26.73;16.55;;;3.00;99.90;;;;;;5006801;28;20033;-75
2021/01/22 12:06:30;;;;;;;21.92;15.43;;;3.00;99.90;;;;;;5002703;28;20105;-75
2021/01/22 12:08:55;;;;;;;23.23;15.05;;;2.90;99.90;;;;;;5005857;28;20132;-74
2021/01/22 12:11:21;;;;;;;21.92;14.00;;;2.90;99.90;;;;;;5007115;28;20156;-75
2021/01/22 12:13:47;;;;;;;24.52;14.70;;;2.90;99.90;;;;;;5006682;28;20030;-75
2021/01/22 12:16:13;;;;;;;24.15;14.63;;;2.90;99.90;;;;;;4992837;28;20642;-77
2021/01/22 12:18:39;;;;;;;27.27;16.85;;;2.90;99.90;;;;;;5006274;28;20037;-76
2021/01/22 12:21:09;;;;;;;32.92;22.85;;;2.90;99.90;;;;;;5005972;28;20056;-76
2021/01/22 12:23:35;;;;;;;33.13;23.15;;;2.80;99.90;;;;;;5005608;28;20033;-76
2021/01/22 12:26:02;;;;;;;30.42;19.65;;;2.80;99.90;;;;;;5006152;28;20030;-77
2021/01/22 12:28:28;;;;;;;33.17;22.27;;;2.80;99.90;;;;;;5005685;28;20022;-76
2021/01/22 12:30:53;;;;;;;40.80;25.45;;;2.80;99.90;;;;;;5004884;28;20404;-75
2021/01/22 12:33:19;;;;;;;33.20;20.20;;;2.60;99.90;;;;;;5005343;28;20032;-75
2021/01/22 12:35:49;;;;;;;27.70;18.17;;;2.60;99.90;;;;;;5005085;28;20032;-75
2021/01/22 12:38:16;;;;;;;23.60;15.52;;;2.50;99.90;;;;;;5005084;28;20037;-75
2021/01/22 12:40:42;;;;;;;23.27;14.88;;;2.60;99.90;;;;;;5006159;28;20103;-77
2021/01/22 12:43:07;;;;;;;17.05;10.98;;;2.60;99.90;;;;;;5005779;28;20022;-75
2021/01/22 12:45:33;;;;;;;20.17;13.05;;;2.60;99.90;;;;;;5000139;28;20034;-77